Stornoway — WDC7908 — position and weather

sailwx.info

Track history (hours):
 
Tides and Currents Weather Stations Pressure Air Temp Water Temp Dewpoint Dewpoint Depression Visibility Wind Speed Wind Dir Waves Ship Positions

Stornoway

Owner: Matthews, William R, Bainbridge Island, WA. More information available from US FCC via Universal Licensing System and Coast Guard Vessel Documentation Center.

Last reported at 2017-Aug-19 20:23 UTC. Time now 2017-Aug-19 22:33 UTC.
Position N 48°48' W 123°34'.

Length 13 m.

Type: Pleasure craft. MMSI: 367078810.

Date/timePositionNaut miles runAvg speedWind from/ knotsBaromVisibWave heightAir tempDewpointWater temp
2017-Aug-19 20:23N 48°48' W 123°34'3 7.8
2017-Aug-19 20:00N 48°45' W 123°34'4 8.4
2017-Aug-19 19:30N 48°41' W 123°32'2 0.0
2017-Aug-17 19:57N 48°40' W 123°30'18 6.7
2017-Aug-17 17:15N 48°37' W 123°02'3 2.2
2017-Aug-17 15:43N 48°38' W 122°58'0 0.0
2017-Aug-17 15:25N 48°38' W 122°58'0 0.0
2017-Aug-17 14:52N 48°38' W 122°58'0 0.0
2017-Aug-17 14:25N 48°38' W 122°58'0 0.0
2017-Aug-17 13:40N 48°38' W 122°58'0 0.0
2017-Aug-17 13:13N 48°38' W 122°58'0 0.0
2017-Aug-17 12:52N 48°38' W 122°58'0 0.0
2017-Aug-17 12:25N 48°38' W 122°58'0 0.0
2017-Aug-17 10:49N 48°38' W 122°58'0 0.0
2017-Aug-17 10:25N 48°38' W 122°58'0 0.0
2017-Aug-17 09:58N 48°38' W 122°58'0 0.0
2017-Aug-17 07:28N 48°38' W 122°58'0 0.0
2017-Aug-17 06:19N 48°38' W 122°58'0 0.0
2017-Aug-17 05:55N 48°38' W 122°58'0 0.0
2017-Aug-17 05:10N 48°38' W 122°58'0 0.0
2017-Aug-17 04:43N 48°38' W 122°58'0 0.0
2017-Aug-17 01:40N 48°38' W 122°58'0 0.0
2017-Aug-16 21:48N 48°38' W 122°58'2 5.2
2017-Aug-16 21:20N 48°36' W 122°56'3 9.0
2017-Aug-16 21:00N 48°34' W 122°52'31 8.0
2017-Aug-16 17:12N 48°07' W 122°30'3 8.7
2017-Aug-16 16:49N 48°05' W 122°26'8 8.8
2017-Aug-16 15:54N 48°00' W 122°17'2 5.7
2017-Aug-16 15:30N 47°60' W 122°13'0 0.7
2017-Aug-16 14:59N 48°00' W 122°13'0 0.0
2017-Aug-16 14:23N 48°00' W 122°13'0 0.0
2017-Aug-16 13:53N 48°00' W 122°13'0 0.0
2017-Aug-16 13:23N 48°00' W 122°13'0 0.0
2017-Aug-16 12:59N 48°00' W 122°13'0 0.0
2017-Aug-16 12:05N 48°00' W 122°13'0 0.0
2017-Aug-16 11:50N 48°00' W 122°13'0 0.0
2017-Aug-16 10:41N 48°00' W 122°13'0 0.0
2017-Aug-16 08:41N 48°00' W 122°13'0 0.0
2017-Aug-16 08:11N 48°00' W 122°13'0 0.0
2017-Aug-16 07:59N 48°00' W 122°13'0 0.0
2017-Aug-16 07:23N 48°00' W 122°13'0 0.0
2017-Aug-16 06:53N 48°00' W 122°13'0 0.0
2017-Aug-16 06:29N 48°00' W 122°13'0 0.0
2017-Aug-16 05:59N 48°00' W 122°13'0 0.0
2017-Aug-16 05:29N 48°00' W 122°13'0 0.0
2017-Aug-16 04:59N 48°00' W 122°13'0 0.0
2017-Aug-16 03:53N 48°00' W 122°13'0 0.1
2017-Aug-16 03:30N 48°00' W 122°13'4 7.5
2017-Aug-16 03:00N 47°58' W 122°17'4 8.2
2017-Aug-16 02:30N 47°54' W 122°21'4 8.5
2017-Aug-16 02:01N 47°50' W 122°23'5 8.9
2017-Aug-16 01:30N 47°46' W 122°27'4 8.6
2017-Aug-16 01:00N 47°43' W 122°31'2 1.4
2017-Aug-15 23:53N 47°42' W 122°32'2 4.4
2017-Aug-15 23:30N 47°43' W 122°30'3 5.4
2017-Aug-15 23:00N 47°42' W 122°27'2 3.4
2017-Aug-15 22:30N 47°41' W 122°24'0 0.0
2017-Aug-15 22:00N 47°41' W 122°24'0 0.0
2017-Aug-15 21:30N 47°41' W 122°24'0 0.0
2017-Aug-15 21:00N 47°41' W 122°24'0 0.0
2017-Aug-15 20:30N 47°41' W 122°24'0 0.0
2017-Aug-15 20:00N 47°41' W 122°24'0 0.0
2017-Aug-15 19:30N 47°41' W 122°24'0 0.0
2017-Aug-15 19:00N 47°41' W 122°24'0 0.0
2017-Aug-15 18:30N 47°41' W 122°24'0 0.0
2017-Aug-15 18:00N 47°41' W 122°24'0 0.0
2017-Aug-15 17:30N 47°41' W 122°24'4 7.4
2017-Aug-15 17:00N 47°42' W 122°30'2 0.1
2017-Aug-15 00:47N 47°42' W 122°32'0 0.0
2017-Aug-14 23:41N 47°42' W 122°32'0 0.0
2017-Aug-14 23:23N 47°42' W 122°32'  
Track history (hours):
 
Tides and Currents Weather Stations Pressure Air Temp Water Temp Dewpoint Dewpoint Depression Visibility Wind Speed Wind Dir Waves Ship Positions

Stornoway

Owner: Matthews, William R, Bainbridge Island, WA. More information available from US FCC via Universal Licensing System and Coast Guard Vessel Documentation Center.

Last reported at 2017-Aug-19 20:23 UTC. Time now 2017-Aug-19 22:33 UTC.
Position N 48°48' W 123°34'.

Length 13 m.

Type: Pleasure craft. MMSI: 367078810.

Date/timePositionNaut miles runAvg speedWind from/ knotsBaromVisibWave heightAir tempDewpointWater temp
2017-Aug-19 20:23N 48°48' W 123°34'3 7.8
2017-Aug-19 20:00N 48°45' W 123°34'4 8.4
2017-Aug-19 19:30N 48°41' W 123°32'2 0.0
2017-Aug-17 19:57N 48°40' W 123°30'18 6.7
2017-Aug-17 17:15N 48°37' W 123°02'3 2.2
2017-Aug-17 15:43N 48°38' W 122°58'0 0.0
2017-Aug-17 15:25N 48°38' W 122°58'0 0.0
2017-Aug-17 14:52N 48°38' W 122°58'0 0.0
2017-Aug-17 14:25N 48°38' W 122°58'0 0.0
2017-Aug-17 13:40N 48°38' W 122°58'0 0.0
2017-Aug-17 13:13N 48°38' W 122°58'0 0.0
2017-Aug-17 12:52N 48°38' W 122°58'0 0.0
2017-Aug-17 12:25N 48°38' W 122°58'0 0.0
2017-Aug-17 10:49N 48°38' W 122°58'0 0.0
2017-Aug-17 10:25N 48°38' W 122°58'0 0.0
2017-Aug-17 09:58N 48°38' W 122°58'0 0.0
2017-Aug-17 07:28N 48°38' W 122°58'0 0.0
2017-Aug-17 06:19N 48°38' W 122°58'0 0.0
2017-Aug-17 05:55N 48°38' W 122°58'0 0.0
2017-Aug-17 05:10N 48°38' W 122°58'0 0.0
2017-Aug-17 04:43N 48°38' W 122°58'0 0.0
2017-Aug-17 01:40N 48°38' W 122°58'0 0.0
2017-Aug-16 21:48N 48°38' W 122°58'2 5.2
2017-Aug-16 21:20N 48°36' W 122°56'3 9.0
2017-Aug-16 21:00N 48°34' W 122°52'31 8.0
2017-Aug-16 17:12N 48°07' W 122°30'3 8.7
2017-Aug-16 16:49N 48°05' W 122°26'8 8.8
2017-Aug-16 15:54N 48°00' W 122°17'2 5.7
2017-Aug-16 15:30N 47°60' W 122°13'0 0.7
2017-Aug-16 14:59N 48°00' W 122°13'0 0.0
2017-Aug-16 14:23N 48°00' W 122°13'0 0.0
2017-Aug-16 13:53N 48°00' W 122°13'0 0.0
2017-Aug-16 13:23N 48°00' W 122°13'0 0.0
2017-Aug-16 12:59N 48°00' W 122°13'0 0.0
2017-Aug-16 12:05N 48°00' W 122°13'0 0.0
2017-Aug-16 11:50N 48°00' W 122°13'0 0.0
2017-Aug-16 10:41N 48°00' W 122°13'0 0.0
2017-Aug-16 08:41N 48°00' W 122°13'0 0.0
2017-Aug-16 08:11N 48°00' W 122°13'0 0.0
2017-Aug-16 07:59N 48°00' W 122°13'0 0.0
2017-Aug-16 07:23N 48°00' W 122°13'0 0.0
2017-Aug-16 06:53N 48°00' W 122°13'0 0.0
2017-Aug-16 06:29N 48°00' W 122°13'0 0.0
2017-Aug-16 05:59N 48°00' W 122°13'0 0.0
2017-Aug-16 05:29N 48°00' W 122°13'0 0.0
2017-Aug-16 04:59N 48°00' W 122°13'0 0.0
2017-Aug-16 03:53N 48°00' W 122°13'0 0.1
2017-Aug-16 03:30N 48°00' W 122°13'4 7.5
2017-Aug-16 03:00N 47°58' W 122°17'4 8.2
2017-Aug-16 02:30N 47°54' W 122°21'4 8.5
2017-Aug-16 02:01N 47°50' W 122°23'5 8.9
2017-Aug-16 01:30N 47°46' W 122°27'4 8.6
2017-Aug-16 01:00N 47°43' W 122°31'2 1.4
2017-Aug-15 23:53N 47°42' W 122°32'2 4.4
2017-Aug-15 23:30N 47°43' W 122°30'3 5.4
2017-Aug-15 23:00N 47°42' W 122°27'2 3.4
2017-Aug-15 22:30N 47°41' W 122°24'0 0.0
2017-Aug-15 22:00N 47°41' W 122°24'0 0.0
2017-Aug-15 21:30N 47°41' W 122°24'0 0.0
2017-Aug-15 21:00N 47°41' W 122°24'0 0.0
2017-Aug-15 20:30N 47°41' W 122°24'0 0.0
2017-Aug-15 20:00N 47°41' W 122°24'0 0.0
2017-Aug-15 19:30N 47°41' W 122°24'0 0.0
2017-Aug-15 19:00N 47°41' W 122°24'0 0.0
2017-Aug-15 18:30N 47°41' W 122°24'0 0.0
2017-Aug-15 18:00N 47°41' W 122°24'0 0.0
2017-Aug-15 17:30N 47°41' W 122°24'4 7.4
2017-Aug-15 17:00N 47°42' W 122°30'2 0.1
2017-Aug-15 00:47N 47°42' W 122°32'0 0.0
2017-Aug-14 23:41N 47°42' W 122°32'0 0.0
2017-Aug-14 23:23N 47°42' W 122°32'  

Dump ship's entire track history